Time;durP1;ratioP1;P1;durP2;ratioP2;P2;SDS_P1;SDS_P2;PMS_P1;PMS_P2;Temp;Humidity;BMP_temperature;BMP_pressure;BME280_temperature;BME280_humidity;BME280_pressure;Samples;Min_cycle;Max_cycle;Signal;HPM_P1;HPM_P2
2022/07/16 00:03:35;;;;;;;5.03;3.13;;;15.90;99.90;;;;;;5071638;28;20203;-61
2022/07/16 00:06:01;;;;;;;4.47;2.70;;;15.80;99.90;;;;;;5071510;28;20224;-61
2022/07/16 00:08:28;;;;;;;7.10;3.27;;;15.80;99.90;;;;;;5071963;28;20208;-61
2022/07/16 00:10:55;;;;;;;4.63;3.97;;;15.70;99.90;;;;;;5071604;28;20278;-60
2022/07/16 00:13:22;;;;;;;5.97;3.00;;;15.60;99.90;;;;;;5071666;28;20208;-60
2022/07/16 00:15:48;;;;;;;5.13;3.03;;;15.50;99.90;;;;;;5071628;28;20221;-60
2022/07/16 00:21:00;;;;;;;4.53;3.27;;;15.40;99.90;;;;;;5071679;28;20200;-60
2022/07/16 00:23:27;;;;;;;3.83;3.03;;;15.30;99.90;;;;;;5071342;28;20204;-60
2022/07/16 00:25:54;;;;;;;4.90;3.20;;;15.30;99.90;;;;;;5071625;28;20225;-61
2022/07/16 00:28:20;;;;;;;3.83;3.17;;;15.20;99.90;;;;;;5072002;28;20205;-61
2022/07/16 00:30:47;;;;;;;5.30;3.30;;;15.20;99.90;;;;;;5071550;28;20229;-61
2022/07/16 00:33:14;;;;;;;7.37;4.30;;;15.20;99.90;;;;;;5071516;28;20278;-61
2022/07/16 00:35:40;;;;;;;5.67;3.50;;;15.10;99.90;;;;;;5071177;28;20290;-61
2022/07/16 00:38:08;;;;;;;5.77;3.23;;;15.10;99.90;;;;;;5071546;28;20205;-61
2022/07/16 00:40:35;;;;;;;4.57;3.33;;;15.10;99.90;;;;;;5071724;28;20207;-61
2022/07/16 00:43:02;;;;;;;3.47;2.90;;;15.10;99.90;;;;;;5071761;28;20629;-61
2022/07/16 00:45:29;;;;;;;6.93;3.10;;;15.00;99.90;;;;;;5071215;28;20237;-61
2022/07/16 00:47:55;;;;;;;6.20;2.90;;;15.00;99.90;;;;;;5071485;28;20211;-61
2022/07/16 00:50:22;;;;;;;5.93;2.90;;;14.90;99.90;;;;;;5072557;28;20288;-61
2022/07/16 00:52:49;;;;;;;4.83;2.60;;;14.80;99.90;;;;;;5075476;28;20286;-61
2022/07/16 00:55:17;;;;;;;3.13;2.50;;;14.80;99.90;;;;;;5075425;28;20220;-61
2022/07/16 00:57:43;;;;;;;5.40;2.93;;;14.70;99.90;;;;;;5075615;28;20216;-59
2022/07/16 01:00:11;;;;;;;4.10;2.90;;;14.70;99.90;;;;;;5075455;28;20204;-60
2022/07/16 01:02:38;;;;;;;4.07;3.03;;;14.70;99.90;;;;;;5075340;28;20201;-59
2022/07/16 01:05:06;;;;;;;7.27;2.80;;;14.70;99.90;;;;;;5074968;28;20228;-61
2022/07/16 01:07:33;;;;;;;5.73;3.33;;;14.70;99.90;;;;;;5075487;28;20231;-61
2022/07/16 01:10:03;;;;;;;4.00;2.93;;;14.70;99.90;;;;;;5075485;28;20270;-61
2022/07/16 01:12:32;;;;;;;3.83;2.60;;;14.60;99.90;;;;;;5075067;28;20221;-60
2022/07/16 01:14:59;;;;;;;2.97;2.63;;;14.60;99.90;;;;;;5074814;28;20731;-60
2022/07/16 01:17:27;;;;;;;3.43;3.13;;;14.60;99.90;;;;;;5075013;28;20687;-60
2022/07/16 01:19:54;;;;;;;4.90;3.23;;;14.60;99.90;;;;;;5075004;28;20212;-60
2022/07/16 01:22:23;;;;;;;4.53;3.13;;;14.60;99.90;;;;;;5075109;28;20204;-60
2022/07/16 01:24:52;;;;;;;5.13;2.90;;;14.50;99.90;;;;;;5074923;28;20212;-60
2022/07/16 01:27:20;;;;;;;5.07;2.90;;;14.50;99.90;;;;;;5074806;28;20688;-60
2022/07/16 01:29:47;;;;;;;6.20;3.10;;;14.50;99.90;;;;;;5074827;28;20695;-60
2022/07/16 01:32:14;;;;;;;3.37;2.80;;;14.50;99.90;;;;;;5074710;28;20228;-60
2022/07/16 01:34:40;;;;;;;5.43;3.10;;;14.50;99.90;;;;;;5074443;28;20590;-60
2022/07/16 01:37:10;;;;;;;7.10;3.67;;;14.30;99.90;;;;;;5074899;28;20212;-60
2022/07/16 01:39:38;;;;;;;5.27;3.40;;;14.30;99.90;;;;;;5074893;28;20209;-60
2022/07/16 01:42:08;;;;;;;4.17;3.17;;;14.20;99.90;;;;;;5074730;28;20201;-60
2022/07/16 01:44:36;;;;;;;3.73;2.90;;;14.20;99.90;;;;;;5074341;28;20236;-61
2022/07/16 01:47:05;;;;;;;6.17;3.03;;;14.20;99.90;;;;;;5074462;28;20275;-59
2022/07/16 01:49:32;;;;;;;4.30;3.20;;;14.20;99.90;;;;;;5074550;28;20201;-61
2022/07/16 01:52:04;;;;;;;4.37;3.13;;;14.20;99.90;;;;;;5074477;28;20224;-61
2022/07/16 01:54:31;;;;;;;6.37;3.00;;;14.10;99.90;;;;;;5074231;28;20262;-59
2022/07/16 01:56:57;;;;;;;3.17;2.87;;;14.10;99.90;;;;;;5074282;28;20233;-60
2022/07/16 01:59:25;;;;;;;5.00;2.87;;;14.10;99.90;;;;;;5074208;28;20286;-59
2022/07/16 02:01:52;;;;;;;5.37;2.90;;;14.20;99.90;;;;;;5073789;28;20201;-61
2022/07/16 02:04:19;;;;;;;6.13;3.37;;;14.20;99.90;;;;;;5074094;28;20250;-61
2022/07/16 02:06:46;;;;;;;4.73;3.10;;;14.20;99.90;;;;;;5073944;28;20297;-59
2022/07/16 02:09:12;;;;;;;3.80;2.90;;;14.20;99.90;;;;;;5074106;28;20201;-59
2022/07/16 02:11:39;;;;;;;5.73;3.37;;;14.10;99.90;;;;;;5073927;28;20585;-59
2022/07/16 02:14:06;;;;;;;3.80;3.33;;;14.10;99.90;;;;;;5074074;28;20629;-59
2022/07/16 02:16:34;;;;;;;3.43;3.10;;;14.10;99.90;;;;;;5074160;28;20225;-59
2022/07/16 02:19:00;;;;;;;4.40;2.93;;;14.00;99.90;;;;;;5074021;28;20209;-59
2022/07/16 02:21:27;;;;;;;4.70;3.33;;;14.00;99.90;;;;;;5073884;28;20205;-59
2022/07/16 02:23:54;;;;;;;6.50;3.47;;;14.00;99.90;;;;;;5073854;28;20216;-59
2022/07/16 02:26:20;;;;;;;6.13;3.37;;;14.00;99.90;;;;;;5073420;28;20639;-59
2022/07/16 02:28:47;;;;;;;3.50;2.80;;;14.00;99.90;;;;;;5073997;28;20209;-59
2022/07/16 02:31:14;;;;;;;4.53;3.23;;;14.00;99.90;;;;;;5073859;28;20215;-59
2022/07/16 02:33:42;;;;;;;3.80;3.20;;;13.90;99.90;;;;;;5073763;28;20247;-59
2022/07/16 02:36:09;;;;;;;4.20;3.17;;;13.90;99.90;;;;;;5073276;28;20741;-59
2022/07/16 02:38:36;;;;;;;3.37;3.07;;;13.90;99.90;;;;;;5073591;28;20300;-59
2022/07/16 02:41:03;;;;;;;6.03;3.30;;;13.90;99.90;;;;;;5073493;28;20263;-59
2022/07/16 02:43:30;;;;;;;8.60;3.57;;;13.90;99.90;;;;;;5073681;28;20578;-59
2022/07/16 02:45:57;;;;;;;5.57;3.27;;;13.80;99.90;;;;;;5073169;28;20286;-59
2022/07/16 02:48:24;;;;;;;5.37;3.37;;;13.70;99.90;;;;;;5073142;28;20258;-59
2022/07/16 02:50:51;;;;;;;3.70;3.00;;;13.60;99.90;;;;;;5073395;28;20665;-59
2022/07/16 02:53:18;;;;;;;4.53;3.20;;;13.60;99.90;;;;;;5073273;28;20582;-59
2022/07/16 02:55:45;;;;;;;4.30;3.53;;;13.60;99.90;;;;;;5072853;28;20232;-59
2022/07/16 02:58:11;;;;;;;5.33;3.30;;;13.60;99.90;;;;;;5073558;28;20204;-59
2022/07/16 03:00:38;;;;;;;5.13;3.10;;;13.60;99.90;;;;;;5073385;28;20208;-59
2022/07/16 03:03:05;;;;;;;3.50;3.20;;;13.50;99.90;;;;;;5072960;28;20205;-59
2022/07/16 03:05:31;;;;;;;3.40;3.10;;;13.50;99.90;;;;;;5072785;28;20225;-59
2022/07/16 03:07:59;;;;;;;5.77;3.50;;;13.50;99.90;;;;;;5073081;28;20205;-60
2022/07/16 03:10:26;;;;;;;5.77;3.40;;;13.40;99.90;;;;;;5075776;28;20239;-59
2022/07/16 03:12:54;;;;;;;3.47;3.13;;;13.40;99.90;;;;;;5075989;28;20225;-61
2022/07/16 03:15:21;;;;;;;3.90;3.23;;;13.40;99.90;;;;;;5074429;28;20225;-59
2022/07/16 03:17:47;;;;;;;3.63;3.03;;;13.30;99.90;;;;;;5074731;28;20216;-59
2022/07/16 03:20:14;;;;;;;4.77;3.30;;;13.40;99.90;;;;;;5074651;28;20205;-59
2022/07/16 03:22:44;;;;;;;3.90;2.90;;;13.40;99.90;;;;;;5073222;28;20293;-59
2022/07/16 03:25:12;;;;;;;5.30;3.70;;;13.40;99.90;;;;;;5072991;28;20236;-59
2022/07/16 03:27:39;;;;;;;3.70;3.30;;;13.30;99.90;;;;;;5073237;28;20204;-59
2022/07/16 03:30:07;;;;;;;4.90;3.37;;;13.20;99.90;;;;;;5072821;28;20295;-59
2022/07/16 03:32:34;;;;;;;5.20;3.50;;;13.20;99.90;;;;;;5073218;28;20217;-59
2022/07/16 03:35:04;;;;;;;3.33;3.00;;;13.20;99.90;;;;;;5072426;28;20279;-60
2022/07/16 03:37:31;;;;;;;6.13;4.83;;;13.20;99.90;;;;;;5072644;28;20213;-60
2022/07/16 03:39:58;;;;;;;3.73;2.90;;;13.20;99.90;;;;;;5072702;28;20235;-59
2022/07/16 03:42:26;;;;;;;6.93;3.83;;;13.20;99.90;;;;;;5072669;28;20205;-60
2022/07/16 03:47:29;;;;;;;3.87;3.47;;;13.20;99.90;;;;;;5070920;28;20227;-60
2022/07/16 03:49:55;;;;;;;4.20;3.50;;;13.20;99.90;;;;;;5072252;28;20263;-59
2022/07/16 03:52:22;;;;;;;5.37;2.93;;;13.20;99.90;;;;;;5072457;28;20282;-59
2022/07/16 03:54:49;;;;;;;4.63;3.53;;;13.20;99.90;;;;;;5071771;28;20730;-57
2022/07/16 03:57:15;;;;;;;4.23;3.50;;;13.20;99.90;;;;;;5072407;28;20232;-58
2022/07/16 03:59:43;;;;;;;5.80;3.27;;;13.10;99.90;;;;;;5072398;28;20228;-57
2022/07/16 04:02:10;;;;;;;3.83;3.43;;;13.00;99.90;;;;;;5072350;28;20205;-57
2022/07/16 04:04:37;;;;;;;4.63;3.00;;;12.90;99.90;;;;;;5072326;28;20205;-57
2022/07/16 04:07:03;;;;;;;4.70;3.20;;;12.90;99.90;;;;;;5072593;28;20235;-57
2022/07/16 04:09:30;;;;;;;4.03;2.97;;;13.00;99.90;;;;;;5072501;28;20212;-57
2022/07/16 04:11:57;;;;;;;4.83;4.13;;;13.10;99.90;;;;;;5072399;28;20229;-56
2022/07/16 04:14:23;;;;;;;3.83;3.43;;;13.20;99.90;;;;;;5072189;28;20209;-57
2022/07/16 04:16:51;;;;;;;3.60;3.17;;;13.10;99.90;;;;;;5071695;28;20243;-56
2022/07/16 04:19:18;;;;;;;4.23;3.20;;;13.20;99.90;;;;;;5072227;28;20254;-56
2022/07/16 04:21:45;;;;;;;4.07;3.03;;;13.20;99.90;;;;;;5072037;28;20228;-56
2022/07/16 04:24:11;;;;;;;8.57;3.13;;;13.30;99.90;;;;;;5072065;28;20216;-56
2022/07/16 04:26:38;;;;;;;5.13;3.10;;;13.30;99.90;;;;;;5071558;28;20232;-56
2022/07/16 04:29:05;;;;;;;6.17;3.50;;;13.30;99.90;;;;;;5071786;28;20208;-56
2022/07/16 04:31:31;;;;;;;3.47;3.17;;;13.30;99.90;;;;;;5071717;28;20254;-56
2022/07/16 04:33:59;;;;;;;6.20;3.37;;;13.50;99.90;;;;;;5071917;28;20233;-56
2022/07/16 04:36:26;;;;;;;4.00;3.23;;;13.50;99.90;;;;;;5071674;28;20298;-56
2022/07/16 04:38:53;;;;;;;5.33;3.07;;;13.70;99.90;;;;;;5071980;28;20212;-56
2022/07/16 04:41:19;;;;;;;4.30;2.93;;;13.80;99.90;;;;;;5071910;28;20200;-55
2022/07/16 04:43:46;;;;;;;6.93;3.23;;;13.90;99.90;;;;;;5071685;28;20209;-58
2022/07/16 04:46:13;;;;;;;5.70;3.00;;;13.90;99.90;;;;;;5071369;28;20233;-57
2022/07/16 04:48:40;;;;;;;4.83;2.83;;;14.00;99.90;;;;;;5071893;28;20201;-58
2022/07/16 04:51:08;;;;;;;5.87;3.10;;;14.10;99.90;;;;;;5071862;28;20262;-58
2022/07/16 04:53:36;;;;;;;3.77;3.10;;;14.20;99.90;;;;;;5071644;28;20233;-58
2022/07/16 04:56:02;;;;;;;6.80;3.20;;;14.20;99.90;;;;;;5071403;28;20252;-58
2022/07/16 04:58:29;;;;;;;4.80;3.33;;;14.30;99.90;;;;;;5071517;28;20580;-57
2022/07/16 05:00:56;;;;;;;3.77;3.20;;;14.40;99.90;;;;;;5071804;28;20259;-56
2022/07/16 05:03:23;;;;;;;7.20;3.13;;;14.60;99.90;;;;;;5071772;28;20208;-57
2022/07/16 05:05:50;;;;;;;4.00;3.03;;;14.70;99.90;;;;;;5071496;28;20233;-56
2022/07/16 05:08:18;;;;;;;3.97;3.30;;;14.80;99.90;;;;;;5071628;28;20205;-58
2022/07/16 05:10:44;;;;;;;5.07;3.40;;;15.00;99.90;;;;;;5071595;28;20676;-58
2022/07/16 05:13:11;;;;;;;4.17;2.93;;;15.00;99.90;;;;;;5071469;28;20320;-57
2022/07/16 05:15:38;;;;;;;6.57;3.20;;;15.10;99.90;;;;;;5071392;28;20225;-57
2022/07/16 05:18:05;;;;;;;6.30;3.43;;;15.10;99.90;;;;;;5071495;28;20362;-57
2022/07/16 05:20:32;;;;;;;3.83;3.37;;;15.30;99.90;;;;;;5071768;28;20211;-57
2022/07/16 05:22:59;;;;;;;8.37;4.40;;;15.60;99.90;;;;;;5071716;28;20564;-58
2022/07/16 05:25:27;;;;;;;5.32;2.75;;;16.80;99.90;;;;;;5071317;28;20231;-58
2022/07/16 05:27:54;;;;;;;3.55;2.67;;;18.70;99.90;;;;;;5071673;28;20254;-58
2022/07/16 05:30:20;;;;;;;3.92;2.72;;;20.70;99.90;;;;;;5071394;28;20205;-56
2022/07/16 05:32:47;;;;;;;5.90;2.60;;;22.50;97.80;;;;;;5071334;28;20232;-57
2022/07/16 05:35:16;;;;;;;4.47;3.03;;;23.10;94.30;;;;;;5071022;28;20205;-57
2022/07/16 05:37:43;;;;;;;6.22;4.18;;;22.60;93.40;;;;;;5072713;28;20668;-57
2022/07/16 05:40:11;;;;;;;3.92;2.80;;;22.10;94.00;;;;;;5074855;28;20213;-57
2022/07/16 05:42:40;;;;;;;7.07;2.63;;;22.70;93.40;;;;;;5075082;28;20205;-57
2022/07/16 05:45:08;;;;;;;5.05;2.70;;;24.00;90.20;;;;;;5074504;28;20209;-57
2022/07/16 05:47:34;;;;;;;3.50;2.25;;;25.20;85.40;;;;;;5074728;28;20209;-58
2022/07/16 05:50:02;;;;;;;5.70;2.70;;;26.50;79.30;;;;;;5074716;28;20231;-58
2022/07/16 05:52:29;;;;;;;3.88;2.80;;;27.90;72.10;;;;;;5074466;28;20236;-57
2022/07/16 05:54:56;;;;;;;6.28;2.90;;;29.20;66.90;;;;;;5074587;28;20386;-57
2022/07/16 05:57:23;;;;;;;4.30;2.80;;;30.60;62.00;;;;;;5074562;28;20212;-57
2022/07/16 05:59:50;;;;;;;6.78;2.88;;;31.60;57.30;;;;;;5074604;28;20208;-57
2022/07/16 06:02:17;;;;;;;4.45;2.80;;;32.60;54.20;;;;;;5074471;28;20262;-56
2022/07/16 06:04:44;;;;;;;5.15;2.72;;;33.30;50.20;;;;;;5074184;28;20700;-58
2022/07/16 06:07:11;;;;;;;4.55;2.67;;;33.90;48.30;;;;;;5074203;28;20231;-58
2022/07/16 06:09:37;;;;;;;7.65;3.08;;;34.20;46.90;;;;;;5074519;28;20216;-57
2022/07/16 06:12:05;;;;;;;5.38;2.97;;;34.60;46.20;;;;;;5074518;28;20209;-58
2022/07/16 06:14:32;;;;;;;7.03;4.32;;;34.90;44.70;;;;;;5074129;28;20233;-58
2022/07/16 06:17:00;;;;;;;5.85;2.90;;;34.90;45.00;;;;;;5074247;28;20225;-57
2022/07/16 06:19:26;;;;;;;4.70;2.83;;;35.30;43.70;;;;;;5074094;28;20208;-57
2022/07/16 06:21:53;;;;;;;4.30;2.70;;;35.80;42.70;;;;;;5073929;28;20204;-58
2022/07/16 06:24:20;;;;;;;8.18;3.60;;;35.50;43.00;;;;;;5074295;28;20235;-57
2022/07/16 06:26:47;;;;;;;5.05;3.00;;;34.40;46.10;;;;;;5073587;28;20227;-58
2022/07/16 06:29:15;;;;;;;5.80;2.50;;;34.20;44.40;;;;;;5074146;28;20208;-58
2022/07/16 06:31:41;;;;;;;4.95;2.60;;;33.90;45.20;;;;;;5074055;28;20292;-58
2022/07/16 06:34:09;;;;;;;6.03;2.65;;;34.20;45.30;;;;;;5073802;28;20225;-57
2022/07/16 06:36:36;;;;;;;4.05;2.78;;;34.80;43.60;;;;;;5073446;28;20707;-57
2022/07/16 06:39:04;;;;;;;2.88;2.55;;;34.70;44.30;;;;;;5073964;28;20208;-58
2022/07/16 06:41:31;;;;;;;3.75;2.55;;;35.80;43.60;;;;;;5073695;28;20296;-58
2022/07/16 06:43:57;;;;;;;7.05;2.70;;;37.20;41.90;;;;;;5073593;28;20208;-58
2022/07/16 06:46:24;;;;;;;5.00;2.20;;;38.20;40.00;;;;;;5073307;28;20320;-58
2022/07/16 06:48:51;;;;;;;6.78;5.72;;;38.20;39.20;;;;;;5073234;28;20201;-57
2022/07/16 06:51:19;;;;;;;5.75;2.88;;;38.40;39.60;;;;;;5073698;28;20254;-58
2022/07/16 06:53:45;;;;;;;3.90;2.80;;;38.90;38.80;;;;;;5073379;28;20225;-58
2022/07/16 06:56:12;;;;;;;5.03;2.72;;;39.50;38.50;;;;;;5073028;28;20573;-58
2022/07/16 06:58:39;;;;;;;4.78;2.47;;;40.30;36.90;;;;;;5073345;28;20664;-58
2022/07/16 07:01:06;;;;;;;6.60;4.40;;;40.30;36.30;;;;;;5073173;28;20278;-58
2022/07/16 07:03:33;;;;;;;3.22;2.65;;;38.40;39.40;;;;;;5073093;28;20207;-57
2022/07/16 07:05:59;;;;;;;5.18;2.75;;;38.80;39.10;;;;;;5073018;28;20229;-58
2022/07/16 07:08:27;;;;;;;5.95;3.65;;;39.60;37.90;;;;;;5073399;28;20216;-58
2022/07/16 07:10:54;;;;;;;5.93;3.05;;;40.60;36.80;;;;;;5073142;28;20212;-58
2022/07/16 07:13:21;;;;;;;3.88;2.67;;;41.00;36.10;;;;;;5073069;28;20309;-58
2022/07/16 07:15:47;;;;;;;4.40;2.33;;;41.50;35.20;;;;;;5072609;28;20224;-58
2022/07/16 07:18:14;;;;;;;2.83;2.20;;;42.10;34.60;;;;;;5072936;28;20242;-58
2022/07/16 07:20:41;;;;;;;7.40;2.28;;;42.60;32.90;;;;;;5073174;28;20199;-58
2022/07/16 07:23:07;;;;;;;4.15;2.40;;;42.50;33.00;;;;;;5072732;28;20208;-58
2022/07/16 07:25:36;;;;;;;3.83;2.38;;;42.80;32.60;;;;;;5072525;28;20724;-58
2022/07/16 07:28:02;;;;;;;4.40;2.35;;;42.60;32.40;;;;;;5072720;28;20200;-57
2022/07/16 07:30:29;;;;;;;6.53;2.55;;;42.70;32.50;;;;;;5072871;28;20208;-58
2022/07/16 07:32:58;;;;;;;3.78;2.20;;;42.60;32.70;;;;;;5072681;28;20755;-57
2022/07/16 07:35:25;;;;;;;3.65;2.30;;;41.20;33.50;;;;;;5072679;28;20228;-57
2022/07/16 07:37:52;;;;;;;5.32;3.50;;;41.00;34.80;;;;;;5073068;28;20211;-57
2022/07/16 07:40:19;;;;;;;4.68;2.60;;;41.60;33.20;;;;;;5072684;28;20216;-58
2022/07/16 07:42:47;;;;;;;3.50;2.00;;;42.00;32.90;;;;;;5072362;28;20204;-56
2022/07/16 07:45:14;;;;;;;5.20;1.83;;;42.30;32.70;;;;;;5071965;28;20204;-56
2022/07/16 07:47:41;;;;;;;6.22;2.30;;;41.30;33.10;;;;;;5072604;28;20586;-57
2022/07/16 07:50:09;;;;;;;3.92;2.00;;;41.10;33.00;;;;;;5072442;28;20295;-57
2022/07/16 07:52:36;;;;;;;3.33;2.03;;;41.50;32.80;;;;;;5072418;28;20216;-57
2022/07/16 07:55:04;;;;;;;3.05;1.90;;;41.90;31.90;;;;;;5071814;28;20224;-57
2022/07/16 07:57:30;;;;;;;5.03;1.90;;;42.10;31.80;;;;;;5072041;28;20204;-57
2022/07/16 07:59:59;;;;;;;5.15;2.22;;;41.60;32.20;;;;;;5071626;28;20219;-57
2022/07/16 08:02:26;;;;;;;2.38;1.77;;;39.90;34.00;;;;;;5072204;28;20216;-57
2022/07/16 08:04:52;;;;;;;3.55;2.10;;;39.70;33.90;;;;;;5071898;28;20595;-56
2022/07/16 08:07:19;;;;;;;3.90;2.58;;;39.70;33.90;;;;;;5071923;28;20274;-57
2022/07/16 08:09:46;;;;;;;3.75;1.73;;;39.40;33.70;;;;;;5071996;28;20216;-57
2022/07/16 08:12:13;;;;;;;3.25;2.20;;;39.20;34.10;;;;;;5071710;28;20208;-57
2022/07/16 08:14:39;;;;;;;3.58;2.28;;;38.50;35.20;;;;;;5072045;28;20595;-57
2022/07/16 08:17:07;;;;;;;3.45;1.80;;;38.80;34.20;;;;;;5072148;28;20305;-57
2022/07/16 08:19:34;;;;;;;3.75;1.70;;;39.30;33.30;;;;;;5072124;28;20204;-57
2022/07/16 08:22:02;;;;;;;3.30;1.70;;;39.40;33.70;;;;;;5071872;28;20254;-58
2022/07/16 08:27:13;;;;;;;3.33;1.58;;;38.90;33.80;;;;;;5071890;28;20605;-57
2022/07/16 08:29:39;;;;;;;2.30;1.50;;;39.10;32.70;;;;;;5072073;28;20208;-58
2022/07/16 08:32:08;;;;;;;4.60;2.42;;;39.00;32.20;;;;;;5071892;28;20216;-58
2022/07/16 08:34:35;;;;;;;2.30;1.20;;;39.10;31.80;;;;;;5071886;28;20220;-57
2022/07/16 08:37:02;;;;;;;3.70;2.10;;;38.80;31.50;;;;;;5071642;28;20224;-57
2022/07/16 08:39:28;;;;;;;3.83;1.25;;;38.20;31.60;;;;;;5071745;28;20209;-58
2022/07/16 08:41:56;;;;;;;3.58;2.05;;;38.10;31.00;;;;;;5071894;28;20213;-58
2022/07/16 08:44:23;;;;;;;2.78;1.80;;;38.00;32.30;;;;;;5072078;28;20197;-58
2022/07/16 08:46:51;;;;;;;4.15;1.50;;;37.80;32.50;;;;;;5071769;28;20616;-57
2022/07/16 08:49:20;;;;;;;5.25;1.38;;;37.00;32.80;;;;;;5072543;28;20205;-56
2022/07/16 08:51:49;;;;;;;3.35;1.60;;;36.10;34.30;;;;;;5072398;28;20231;-56
2022/07/16 08:54:20;;;;;;;2.90;2.10;;;35.70;34.70;;;;;;5072100;28;20697;-56
2022/07/16 08:56:47;;;;;;;3.28;1.83;;;33.90;37.50;;;;;;5072076;28;20229;-56
2022/07/16 08:59:15;;;;;;;5.70;3.88;;;32.10;38.30;;;;;;5071970;28;20254;-56
2022/07/16 09:01:42;;;;;;;5.13;1.65;;;30.70;41.60;;;;;;5071586;28;20865;-57
2022/07/16 09:04:09;;;;;;;3.92;1.45;;;29.70;41.20;;;;;;5071601;28;20213;-57
2022/07/16 09:06:37;;;;;;;3.60;2.30;;;28.80;41.70;;;;;;5071480;28;20229;-57
2022/07/16 09:09:04;;;;;;;5.22;2.40;;;28.20;43.30;;;;;;5071846;28;20217;-57
2022/07/16 09:11:33;;;;;;;1.92;1.40;;;27.70;44.70;;;;;;5073032;28;20205;-57
2022/07/16 09:14:02;;;;;;;4.80;1.52;;;27.10;44.10;;;;;;5075580;28;20220;-58
2022/07/16 09:16:29;;;;;;;7.20;3.40;;;26.60;44.90;;;;;;5075251;28;20282;-57
2022/07/16 09:19:08;;;;;;;4.28;1.65;;;26.00;47.20;;;;;;5075250;28;20220;-58
2022/07/16 09:21:37;;;;;;;3.90;1.70;;;25.70;47.70;;;;;;5075546;28;20219;-57
2022/07/16 09:24:05;;;;;;;3.10;1.60;;;25.40;48.80;;;;;;5075118;28;20672;-57
2022/07/16 09:26:31;;;;;;;5.70;1.70;;;25.30;48.30;;;;;;5075108;28;20258;-57
2022/07/16 09:29:03;;;;;;;2.47;1.20;;;25.30;48.10;;;;;;5075336;28;20212;-57
2022/07/16 09:31:39;;;;;;;2.13;1.50;;;25.30;46.80;;;;;;5075218;28;20212;-58
2022/07/16 09:34:08;;;;;;;4.53;1.42;;;25.20;48.40;;;;;;5075242;28;20232;-58
2022/07/16 09:36:37;;;;;;;4.15;1.50;;;25.00;47.90;;;;;;5074962;28;20636;-58
2022/07/16 09:39:06;;;;;;;4.10;2.88;;;24.80;48.20;;;;;;5075015;28;20213;-58
2022/07/16 09:41:42;;;;;;;2.65;1.40;;;24.70;50.40;;;;;;5075215;28;20228;-58
2022/07/16 09:44:17;;;;;;;4.40;2.17;;;24.90;49.10;;;;;;5075172;28;20288;-57
2022/07/16 09:46:58;;;;;;;3.28;1.55;;;25.00;49.20;;;;;;5089796;22;20247;-58
2022/07/16 09:49:26;;;;;;;5.88;2.17;;;24.90;48.50;;;;;;5076952;28;20208;-59
2022/07/16 09:51:54;;;;;;;4.03;1.70;;;24.80;49.30;;;;;;5077126;28;20205;-57
2022/07/16 09:54:32;;;;;;;3.92;1.50;;;24.80;50.40;;;;;;5077000;28;20749;-58
2022/07/16 09:57:13;;;;;;;5.28;1.52;;;24.80;49.20;;;;;;5076332;28;20240;-59
2022/07/16 09:59:40;;;;;;;2.95;1.83;;;24.80;48.90;;;;;;5076827;28;20208;-58
2022/07/16 10:02:07;;;;;;;2.92;2.50;;;24.70;49.50;;;;;;5076684;28;20702;-58
2022/07/16 10:04:34;;;;;;;2.45;1.75;;;24.80;50.50;;;;;;5075887;28;20208;-59
2022/07/16 10:07:02;;;;;;;2.15;1.73;;;24.90;48.60;;;;;;5075583;28;20228;-58
2022/07/16 10:09:29;;;;;;;3.33;2.38;;;25.00;47.70;;;;;;5075890;28;20205;-59
2022/07/16 10:11:58;;;;;;;2.17;1.30;;;25.00;47.20;;;;;;5076074;28;20330;-59
2022/07/16 10:14:26;;;;;;;3.92;1.52;;;24.90;47.10;;;;;;5075830;28;20706;-58
2022/07/16 10:16:59;;;;;;;3.53;1.23;;;24.80;47.10;;;;;;5075297;28;20247;-59
2022/07/16 10:19:35;;;;;;;2.83;1.50;;;24.80;46.90;;;;;;5075692;28;20215;-59
2022/07/16 10:22:28;;;;;;;5.00;2.30;;;24.90;46.50;;;;;;5076039;28;20665;-59
2022/07/16 10:24:56;;;;;;;2.95;1.90;;;25.00;46.60;;;;;;5075058;28;20201;-59
2022/07/16 10:27:27;;;;;;;2.03;1.30;;;25.20;48.70;;;;;;5075240;28;20232;-59
2022/07/16 10:30:11;;;;;;;5.32;1.75;;;25.30;47.60;;;;;;5075174;28;20200;-57
2022/07/16 10:33:17;;;;;;;3.00;1.40;;;25.50;46.90;;;;;;5075710;28;20272;-57
2022/07/16 10:35:49;;;;;;;4.03;1.65;;;25.60;45.60;;;;;;5075026;28;20260;-58
2022/07/16 10:38:21;;;;;;;2.65;1.10;;;25.70;46.70;;;;;;5075092;28;20189;-57
2022/07/16 10:41:05;;;;;;;3.08;1.80;;;25.70;44.90;;;;;;5075075;28;20204;-58
2022/07/16 10:43:32;;;;;;;9.15;2.30;;;25.70;46.10;;;;;;5075285;28;20205;-58
2022/07/16 10:46:00;;;;;;;3.42;1.30;;;25.70;47.40;;;;;;5074470;28;20236;-58
2022/07/16 10:48:29;;;;;;;4.85;1.38;;;25.70;42.70;;;;;;5075477;28;20793;-59
2022/07/16 10:51:14;;;;;;;3.45;1.83;;;25.70;42.00;;;;;;5075701;28;20205;-63
2022/07/16 10:54:20;;;;;;;4.13;1.45;;;25.80;43.20;;;;;;5075478;28;20212;-59
2022/07/16 10:56:48;;;;;;;5.40;1.65;;;25.70;43.80;;;;;;5013386;28;20316;-59
2022/07/16 10:59:17;;;;;;;2.05;1.50;;;25.70;44.20;;;;;;5012732;28;20214;-62
2022/07/16 11:01:46;;;;;;;4.32;3.13;;;25.70;45.90;;;;;;5044724;28;20208;-58
2022/07/16 11:04:13;;;;;;;4.68;1.45;;;25.70;48.50;;;;;;5075502;28;20261;-58
2022/07/16 11:06:41;;;;;;;3.97;1.88;;;25.90;44.90;;;;;;5074936;28;20732;-59
2022/07/16 11:09:09;;;;;;;2.97;1.95;;;26.00;44.50;;;;;;5075107;28;20299;-59
2022/07/16 11:11:40;;;;;;;2.13;1.30;;;26.10;44.30;;;;;;5075082;28;20213;-59
2022/07/16 11:14:07;;;;;;;2.45;1.23;;;26.00;44.20;;;;;;5074812;28;20262;-59
2022/07/16 11:16:35;;;;;;;1.55;1.05;;;26.00;44.30;;;;;;5074404;28;20237;-61
2022/07/16 11:19:02;;;;;;;1.63;1.20;;;26.00;45.00;;;;;;5074548;28;20216;-60
2022/07/16 11:21:29;;;;;;;5.30;2.22;;;26.00;45.20;;;;;;5074341;28;20205;-59
2022/07/16 11:24:00;;;;;;;2.60;1.80;;;26.00;47.20;;;;;;5074679;28;20687;-59
2022/07/16 11:26:27;;;;;;;4.40;2.10;;;26.10;46.20;;;;;;5074707;28;20263;-59
2022/07/16 11:28:58;;;;;;;1.90;1.05;;;26.20;47.40;;;;;;5074921;28;20230;-60
2022/07/16 11:31:26;;;;;;;3.08;1.27;;;26.30;46.70;;;;;;5075373;28;20295;-60
2022/07/16 11:33:55;;;;;;;4.70;1.75;;;26.30;46.70;;;;;;5075359;28;20692;-60
2022/07/16 11:36:26;;;;;;;1.60;1.08;;;26.50;47.60;;;;;;5073961;28;20236;-59
2022/07/16 11:38:58;;;;;;;2.92;1.38;;;26.60;46.10;;;;;;5074895;28;20209;-60
2022/07/16 11:41:24;;;;;;;2.03;1.10;;;26.50;46.20;;;;;;5074800;28;20270;-59
2022/07/16 11:43:51;;;;;;;3.28;1.45;;;26.50;46.40;;;;;;5074862;28;20231;-62
2022/07/16 11:46:27;;;;;;;5.35;1.35;;;26.40;46.80;;;;;;5074031;28;20716;-62
2022/07/16 11:48:54;;;;;;;5.78;1.30;;;26.40;47.30;;;;;;5075228;28;20262;-60
2022/07/16 11:51:22;;;;;;;3.67;1.38;;;26.40;47.70;;;;;;5074699;28;20616;-64
2022/07/16 11:53:50;;;;;;;1.73;1.00;;;26.50;47.60;;;;;;5074044;28;20218;-60
2022/07/16 11:56:31;;;;;;;2.85;1.20;;;26.50;47.60;;;;;;5074029;28;20278;-59
2022/07/16 11:58:58;;;;;;;7.35;1.20;;;26.50;47.60;;;;;;5074954;28;20243;-60
2022/07/16 12:01:26;;;;;;;1.70;1.30;;;26.30;47.50;;;;;;5075170;28;20212;-59
2022/07/16 12:03:54;;;;;;;2.65;1.30;;;26.00;48.20;;;;;;5075699;28;20208;-60
2022/07/16 12:06:21;;;;;;;3.00;1.38;;;25.90;48.70;;;;;;5074561;28;20225;-60
2022/07/16 12:08:52;;;;;;;1.85;1.10;;;26.00;48.40;;;;;;5073977;28;20235;-60
2022/07/16 12:11:18;;;;;;;3.15;1.17;;;26.20;48.60;;;;;;5073742;28;20228;-60
2022/07/16 12:13:52;;;;;;;4.22;1.42;;;26.50;48.20;;;;;;5073221;28;20330;-60
2022/07/16 12:16:21;;;;;;;1.92;1.15;;;26.70;47.70;;;;;;5073348;28;20224;-60
2022/07/16 12:19:04;;;;;;;1.65;1.20;;;26.80;47.50;;;;;;5073363;28;20213;-60
2022/07/16 12:21:32;;;;;;;4.22;1.42;;;27.10;47.40;;;;;;5073950;28;20240;-61
2022/07/16 12:23:59;;;;;;;2.67;1.05;;;27.30;47.40;;;;;;5073215;28;20636;-60
2022/07/16 12:26:33;;;;;;;1.75;0.88;;;27.40;46.70;;;;;;5073299;28;20707;-60
2022/07/16 12:29:01;;;;;;;2.95;1.33;;;27.30;46.60;;;;;;5074665;28;20211;-61
2022/07/16 12:31:29;;;;;;;2.70;1.20;;;27.20;46.90;;;;;;5074106;28;20236;-60
2022/07/16 12:33:58;;;;;;;2.70;1.20;;;27.00;47.20;;;;;;5073992;28;20204;-60
2022/07/16 12:36:34;;;;;;;1.35;0.90;;;27.00;46.50;;;;;;5073040;28;20232;-60
2022/07/16 12:39:03;;;;;;;2.72;1.20;;;27.00;46.70;;;;;;5073314;28;20516;-59
2022/07/16 12:41:32;;;;;;;1.27;1.10;;;27.00;47.50;;;;;;5072706;28;20212;-60
2022/07/16 12:44:01;;;;;;;1.85;0.98;;;27.00;47.00;;;;;;5072676;28;20207;-60
2022/07/16 12:46:30;;;;;;;2.53;1.02;;;27.10;46.40;;;;;;5073382;28;20315;-60
2022/07/16 12:48:58;;;;;;;1.65;1.10;;;27.20;46.70;;;;;;5076450;28;20763;-60
2022/07/16 12:51:27;;;;;;;3.40;1.23;;;27.30;47.30;;;;;;5076468;28;20200;-61
2022/07/16 12:53:57;;;;;;;3.28;1.10;;;27.50;46.20;;;;;;5076551;28;20228;-60
2022/07/16 12:59:09;;;;;;;1.40;0.90;;;27.30;45.40;;;;;;5077570;28;20204;-60
2022/07/16 13:01:36;;;;;;;3.33;1.15;;;27.20;45.50;;;;;;5076354;28;20213;-60
2022/07/16 13:04:04;;;;;;;1.35;1.00;;;27.20;45.80;;;;;;5076323;28;20204;-61
2022/07/16 13:06:31;;;;;;;2.22;1.10;;;27.10;46.40;;;;;;5077270;28;20227;-60